createdAt,value
2022-12-29T00:01:12.005Z,60.82
2022-12-29T00:03:39.361Z,59.25
2022-12-29T00:06:06.503Z,58.96
2022-12-29T00:08:42.524Z,59.09
2022-12-29T00:11:32.338Z,57.85
2022-12-29T00:14:22.776Z,59.13
2022-12-29T00:16:52.944Z,58.53
2022-12-29T00:19:39.486Z,58.41
2022-12-29T00:22:25.505Z,58.54
2022-12-29T00:25:11.109Z,59.41
2022-12-29T00:27:58.286Z,59.10
2022-12-29T00:30:47.978Z,58.36
2022-12-29T00:33:37.748Z,58.89
2022-12-29T00:36:34.348Z,59.20
2022-12-29T00:39:28.797Z,58.40
2022-12-29T00:42:14.241Z,58.45
2022-12-29T00:44:41.364Z,58.67
2022-12-29T00:47:10.271Z,58.85
2022-12-29T00:49:37.624Z,58.25
2022-12-29T00:52:14.038Z,58.48
2022-12-29T00:54:42.587Z,59.28
2022-12-29T00:57:10.854Z,59.00
2022-12-29T00:59:39.992Z,58.87
2022-12-29T01:02:07.727Z,59.42
2022-12-29T01:04:35.856Z,58.64
2022-12-29T01:07:03.012Z,58.81
2022-12-29T01:09:48.697Z,58.48
2022-12-29T01:12:15.664Z,58.07
2022-12-29T01:14:43.081Z,58.70
2022-12-29T01:17:10.369Z,60.00
2022-12-29T01:19:37.797Z,60.04
2022-12-29T01:22:04.975Z,60.33
2022-12-29T01:24:31.948Z,59.70
2022-12-29T01:26:59.151Z,59.81
2022-12-29T01:29:26.469Z,59.98
2022-12-29T01:31:53.573Z,59.93
2022-12-29T01:34:20.922Z,60.70
2022-12-29T01:36:47.851Z,61.06
2022-12-29T01:39:15.242Z,61.09
2022-12-29T01:41:43.317Z,61.10
2022-12-29T01:44:52.750Z,61.55
2022-12-29T01:47:52.898Z,62.71
2022-12-29T01:50:37.228Z,61.75
2022-12-29T01:53:22.041Z,62.26
2022-12-29T01:55:58.835Z,63.00
2022-12-29T01:58:35.086Z,62.50
2022-12-29T02:01:02.708Z,62.33
2022-12-29T02:03:33.237Z,60.80
2022-12-29T02:06:17.276Z,60.64
2022-12-29T02:08:48.536Z,60.85
2022-12-29T02:11:17.506Z,61.29
2022-12-29T02:13:44.852Z,60.73
2022-12-29T02:16:40.287Z,61.16
2022-12-29T02:19:32.866Z,61.66
2022-12-29T02:22:32.864Z,61.41
2022-12-29T02:25:24.184Z,61.75
2022-12-29T02:28:21.769Z,62.49
2022-12-29T02:31:13.757Z,62.61
2022-12-29T02:34:26.898Z,62.71
2022-12-29T02:37:23.588Z,62.44
2022-12-29T02:40:02.777Z,62.42
2022-12-29T02:43:15.076Z,62.12
2022-12-29T02:46:04.390Z,62.29
2022-12-29T02:48:46.651Z,62.37
2022-12-29T02:51:27.193Z,61.78
2022-12-29T02:54:14.844Z,62.40
2022-12-29T02:56:41.913Z,63.25
2022-12-29T02:59:09.558Z,63.06
2022-12-29T03:02:17.971Z,62.94
2022-12-29T03:05:26.103Z,63.28
2022-12-29T03:08:05.099Z,63.18
2022-12-29T03:11:03.090Z,63.80
2022-12-29T03:14:08.323Z,65.21
2022-12-29T03:16:56.460Z,64.62
2022-12-29T03:19:47.039Z,64.91
2022-12-29T03:22:31.632Z,64.79
2022-12-29T03:25:36.616Z,63.72
2022-12-29T03:28:36.475Z,64.85
2022-12-29T03:31:05.572Z,65.38
2022-12-29T03:33:33.930Z,63.99
2022-12-29T03:36:07.167Z,64.84
2022-12-29T03:38:47.464Z,64.89
2022-12-29T03:41:21.480Z,65.01
2022-12-29T03:43:49.471Z,66.07
2022-12-29T03:46:16.461Z,65.50
2022-12-29T03:48:43.817Z,65.38
2022-12-29T03:51:11.015Z,65.92
2022-12-29T03:53:37.970Z,65.19
2022-12-29T03:56:05.096Z,65.79
2022-12-29T03:58:32.612Z,66.07
2022-12-29T04:01:22.719Z,65.34
2022-12-29T04:03:49.909Z,64.33
2022-12-29T04:06:17.238Z,64.91
2022-12-29T04:08:52.266Z,64.34
2022-12-29T04:11:19.237Z,64.66
2022-12-29T04:13:46.471Z,64.89
2022-12-29T04:16:17.335Z,65.81
2022-12-29T04:18:44.577Z,65.33
2022-12-29T04:21:11.590Z,65.26
2022-12-29T04:23:41.699Z,65.76
2022-12-29T04:26:10.518Z,65.22
2022-12-29T04:28:49.226Z,65.24
2022-12-29T04:31:27.061Z,64.80
2022-12-29T04:33:54.465Z,65.43
2022-12-29T04:36:25.356Z,64.35
2022-12-29T04:38:57.004Z,65.01
2022-12-29T04:41:24.585Z,64.60
2022-12-29T04:43:52.203Z,64.25
2022-12-29T04:46:42.258Z,64.37
2022-12-29T04:49:17.856Z,64.46
2022-12-29T04:51:56.112Z,64.20
2022-12-29T04:54:24.067Z,63.43
2022-12-29T04:56:59.067Z,64.85
2022-12-29T04:59:26.227Z,63.64
2022-12-29T05:01:57.319Z,63.00
2022-12-29T05:04:24.709Z,62.99
2022-12-29T05:06:51.651Z,63.94
2022-12-29T05:09:18.662Z,63.20
2022-12-29T05:11:45.948Z,62.93
2022-12-29T05:14:12.975Z,63.24
2022-12-29T05:16:40.210Z,61.95
2022-12-29T05:19:07.254Z,62.85
2022-12-29T05:21:35.990Z,62.64
2022-12-29T05:24:03.311Z,62.81
2022-12-29T05:26:30.552Z,62.45
2022-12-29T05:29:30.208Z,61.56
2022-12-29T05:31:58.566Z,62.15
2022-12-29T05:37:07.225Z,62.14
2022-12-29T05:39:34.563Z,61.61
2022-12-29T05:42:04.720Z,61.50
2022-12-29T05:44:53.031Z,61.36
2022-12-29T05:47:25.750Z,61.37
2022-12-29T05:50:06.886Z,61.38
2022-12-29T05:52:52.891Z,61.25
2022-12-29T05:55:21.136Z,60.54
2022-12-29T05:57:50.738Z,60.87
2022-12-29T06:00:18.144Z,60.94
2022-12-29T06:02:47.437Z,60.56
2022-12-29T06:05:16.199Z,61.62
2022-12-29T06:07:43.934Z,59.21
2022-12-29T06:10:11.169Z,61.39
2022-12-29T06:12:45.011Z,59.54
2022-12-29T06:15:12.183Z,58.28
2022-12-29T06:17:41.845Z,59.80
2022-12-29T06:20:10.863Z,59.18
2022-12-29T06:22:39.085Z,60.17
2022-12-29T06:25:07.204Z,59.91
2022-12-29T06:27:35.469Z,58.26
2022-12-29T06:30:02.813Z,59.55
2022-12-29T06:32:30.095Z,59.03
2022-12-29T06:35:03.024Z,58.96
2022-12-29T06:37:30.292Z,59.45
2022-12-29T06:39:57.274Z,59.72
2022-12-29T06:42:29.260Z,59.25
2022-12-29T06:45:15.049Z,58.61
2022-12-29T06:47:42.242Z,60.07
2022-12-29T06:50:09.651Z,59.83
2022-12-29T06:52:36.945Z,59.74
2022-12-29T06:55:04.630Z,60.55
2022-12-29T06:57:32.005Z,59.92
2022-12-29T06:59:58.994Z,59.37
2022-12-29T07:02:26.518Z,60.37
2022-12-29T07:04:54.201Z,59.79
2022-12-29T07:07:22.063Z,59.69
2022-12-29T07:09:49.073Z,59.80
2022-12-29T07:12:16.517Z,60.76
2022-12-29T07:14:44.303Z,60.22
2022-12-29T07:17:11.631Z,60.50
2022-12-29T07:19:38.580Z,60.62
2022-12-29T07:22:05.696Z,59.73
2022-12-29T07:24:32.645Z,61.61
2022-12-29T07:26:59.890Z,59.99
2022-12-29T07:29:26.799Z,60.67
2022-12-29T07:31:53.984Z,61.31
2022-12-29T07:34:21.351Z,61.11
2022-12-29T07:36:48.272Z,61.54
2022-12-29T07:39:15.516Z,61.53
2022-12-29T07:41:42.471Z,61.23
2022-12-29T07:44:12.624Z,60.82
2022-12-29T07:47:15.260Z,61.34
2022-12-29T07:49:42.537Z,61.60
2022-12-29T07:52:09.535Z,61.08
2022-12-29T07:54:36.497Z,61.67
2022-12-29T07:57:05.349Z,60.89
2022-12-29T07:59:32.793Z,61.02
2022-12-29T08:01:59.959Z,61.66
2022-12-29T08:04:27.225Z,60.82
2022-12-29T08:06:54.194Z,61.71
2022-12-29T08:09:24.011Z,61.64
2022-12-29T08:11:51.995Z,61.28
2022-12-29T08:14:19.486Z,61.18
2022-12-29T08:16:46.529Z,62.60
2022-12-29T08:19:14.337Z,62.48
2022-12-29T08:21:41.349Z,61.81
2022-12-29T08:24:09.634Z,61.68
2022-12-29T08:26:36.706Z,62.63
2022-12-29T08:29:03.872Z,62.49
2022-12-29T08:31:30.821Z,63.42
2022-12-29T08:33:58.072Z,63.54
2022-12-29T08:36:25.033Z,62.60
2022-12-29T08:38:52.027Z,63.57
2022-12-29T08:41:18.983Z,63.30
2022-12-29T08:43:50.728Z,63.81
2022-12-29T08:46:18.018Z,63.20
2022-12-29T08:48:45.387Z,62.91
2022-12-29T08:51:12.391Z,63.29
2022-12-29T08:53:40.299Z,64.20
2022-12-29T08:56:07.755Z,63.48
2022-12-29T08:58:44.264Z,62.45
2022-12-29T09:01:11.908Z,63.37
2022-12-29T09:04:13.490Z,63.17
2022-12-29T09:06:26.465Z,63.72
2022-12-29T09:08:55.900Z,62.99
2022-12-29T09:11:25.994Z,62.79
2022-12-29T09:13:54.639Z,63.28
2022-12-29T09:16:25.245Z,63.17
2022-12-29T09:18:52.296Z,62.11
2022-12-29T09:21:19.291Z,64.19
2022-12-29T09:23:46.291Z,63.63
2022-12-29T09:26:13.242Z,65.54
2022-12-29T09:28:40.396Z,67.17
2022-12-29T09:31:07.667Z,66.94
2022-12-29T09:33:35.348Z,65.75
2022-12-29T09:36:02.858Z,66.17
2022-12-29T09:38:30.931Z,66.15
2022-12-29T09:41:27.464Z,66.70
2022-12-29T09:44:09.569Z,65.98
2022-12-29T09:46:41.456Z,66.32
2022-12-29T09:49:14.455Z,66.46
2022-12-29T09:51:46.284Z,66.12
2022-12-29T09:54:39.988Z,66.99
2022-12-29T09:57:26.023Z,66.79
2022-12-29T10:00:13.086Z,67.16
2022-12-29T10:02:59.097Z,67.68
2022-12-29T10:06:08.851Z,67.51
2022-12-29T10:08:41.123Z,67.08
2022-12-29T10:11:21.195Z,66.49
2022-12-29T10:14:30.183Z,66.76
2022-12-29T10:17:33.687Z,66.18
2022-12-29T10:20:12.591Z,65.24
2022-12-29T10:23:23.120Z,65.89
2022-12-29T10:25:51.796Z,65.74
2022-12-29T10:28:25.065Z,66.33
2022-12-29T10:30:54.296Z,65.84
2022-12-29T10:33:27.689Z,65.76
2022-12-29T10:35:54.759Z,66.36
2022-12-29T10:38:42.287Z,65.43
2022-12-29T10:41:46.806Z,66.38
2022-12-29T10:44:18.090Z,66.93
2022-12-29T10:46:48.705Z,65.91
2022-12-29T10:49:21.885Z,65.82
2022-12-29T10:51:53.081Z,65.79
2022-12-29T10:54:28.875Z,67.00
2022-12-29T10:57:12.553Z,66.60
2022-12-29T10:59:40.499Z,66.11
2022-12-29T11:02:10.681Z,66.41
2022-12-29T11:04:55.861Z,67.20
2022-12-29T11:07:27.360Z,67.20
2022-12-29T11:09:54.821Z,66.81
2022-12-29T11:12:29.954Z,65.94
2022-12-29T11:15:08.853Z,65.86
2022-12-29T11:17:50.918Z,66.14
2022-12-29T11:20:35.829Z,64.76
2022-12-29T11:23:05.193Z,65.81
2022-12-29T11:25:32.463Z,64.76
2022-12-29T11:28:18.236Z,65.93
2022-12-29T11:30:45.286Z,64.69
2022-12-29T11:33:12.303Z,65.62
2022-12-29T11:35:45.734Z,65.05
2022-12-29T11:38:35.418Z,65.88
2022-12-29T11:41:04.884Z,65.46
2022-12-29T11:43:41.811Z,65.72
2022-12-29T11:46:21.113Z,66.42
2022-12-29T11:48:49.444Z,67.35
2022-12-29T11:51:26.356Z,67.39
2022-12-29T11:54:03.288Z,67.85
2022-12-29T11:56:43.915Z,68.02
2022-12-29T11:59:41.937Z,69.94
2022-12-29T12:02:43.919Z,70.54
2022-12-29T12:05:40.834Z,71.78
2022-12-29T12:08:45.098Z,70.45
2022-12-29T12:11:25.915Z,69.70
2022-12-29T12:14:15.023Z,69.65
2022-12-29T12:17:24.897Z,69.76
2022-12-29T12:20:28.798Z,70.09
2022-12-29T12:23:28.931Z,69.83
2022-12-29T12:26:16.381Z,70.14
2022-12-29T12:28:47.356Z,70.04
2022-12-29T12:32:00.963Z,70.45
2022-12-29T12:34:38.622Z,69.99
2022-12-29T12:37:23.533Z,69.52
2022-12-29T12:40:21.834Z,68.27
2022-12-29T12:43:16.318Z,68.31
2022-12-29T12:46:20.671Z,68.50
2022-12-29T12:49:06.008Z,68.11
2022-12-29T12:52:05.783Z,66.94
2022-12-29T12:55:05.653Z,67.52
2022-12-29T12:58:19.815Z,67.01
2022-12-29T13:01:01.691Z,68.17
2022-12-29T13:04:10.667Z,67.65
2022-12-29T13:07:27.811Z,66.75
2022-12-29T13:10:17.761Z,67.13
2022-12-29T13:13:40.848Z,66.74
2022-12-29T13:16:40.673Z,65.68
2022-12-29T13:19:22.776Z,67.30
2022-12-29T13:22:01.964Z,66.66
2022-12-29T13:24:41.238Z,66.38
2022-12-29T13:27:44.132Z,66.37
2022-12-29T13:30:20.108Z,66.77
2022-12-29T13:33:05.070Z,67.32
2022-12-29T13:35:46.142Z,67.71
2022-12-29T13:38:41.372Z,66.68
2022-12-29T13:41:19.847Z,67.39
2022-12-29T13:43:49.007Z,67.40
2022-12-29T13:46:29.310Z,67.35
2022-12-29T13:49:15.693Z,67.68
2022-12-29T13:51:54.628Z,67.51
2022-12-29T13:54:46.522Z,67.31
2022-12-29T13:57:27.808Z,67.74
2022-12-29T14:00:12.803Z,69.14
2022-12-29T14:03:17.148Z,70.50
2022-12-29T14:06:03.229Z,70.66
2022-12-29T14:08:34.457Z,70.79
2022-12-29T14:11:15.985Z,71.04
2022-12-29T14:13:47.188Z,70.91
2022-12-29T14:16:29.990Z,71.29
2022-12-29T14:19:06.512Z,71.72
2022-12-29T14:21:34.995Z,71.35
2022-12-29T14:24:35.653Z,70.04
2022-12-29T14:27:22.688Z,70.45
2022-12-29T14:29:52.269Z,70.60
2022-12-29T14:32:28.332Z,70.73
2022-12-29T14:35:01.072Z,70.53
2022-12-29T14:37:32.179Z,70.79
2022-12-29T14:40:24.474Z,71.38
2022-12-29T14:42:55.064Z,70.68
2022-12-29T14:45:22.121Z,71.12
2022-12-29T14:47:52.358Z,69.68
2022-12-29T14:50:41.889Z,70.27
2022-12-29T14:53:51.619Z,70.25
2022-12-29T14:56:32.673Z,69.75
2022-12-29T14:59:05.110Z,69.04
2022-12-29T15:01:41.968Z,70.25
2022-12-29T15:04:27.758Z,70.57
2022-12-29T15:06:55.277Z,71.24
2022-12-29T15:09:37.371Z,73.21
2022-12-29T15:12:42.777Z,71.58
2022-12-29T15:15:30.939Z,71.90
2022-12-29T15:17:57.950Z,71.48
2022-12-29T15:20:33.015Z,71.22
2022-12-29T15:23:09.883Z,71.63
2022-12-29T15:25:37.461Z,71.46
2022-12-29T15:28:07.522Z,72.37
2022-12-29T15:30:34.823Z,74.61
2022-12-29T15:33:03.634Z,76.79
2022-12-29T15:35:36.078Z,76.48
2022-12-29T15:38:17.693Z,76.48
2022-12-29T15:40:46.565Z,76.29
2022-12-29T15:43:34.911Z,75.45
2022-12-29T15:46:03.045Z,77.52
2022-12-29T15:48:32.288Z,76.35
2022-12-29T15:51:01.134Z,77.15
2022-12-29T15:53:33.514Z,76.05
2022-12-29T15:56:11.100Z,77.39
2022-12-29T15:58:54.161Z,75.48
2022-12-29T16:01:33.794Z,75.59
2022-12-29T16:04:08.324Z,76.80
2022-12-29T16:06:39.278Z,75.97
2022-12-29T16:09:19.527Z,75.17
2022-12-29T16:11:57.709Z,75.49
2022-12-29T16:15:04.196Z,74.87
2022-12-29T16:17:37.239Z,74.86
2022-12-29T16:20:18.595Z,74.87
2022-12-29T16:22:56.381Z,74.46
2022-12-29T16:25:35.584Z,73.67
2022-12-29T16:28:15.177Z,73.92
2022-12-29T16:30:42.175Z,75.61
2022-12-29T16:33:37.488Z,76.56
2022-12-29T16:36:28.413Z,78.69
2022-12-29T16:39:26.621Z,79.21
2022-12-29T16:41:55.172Z,80.31
2022-12-29T16:44:25.515Z,80.49
2022-12-29T16:47:10.801Z,81.38
2022-12-29T16:49:41.474Z,82.05
2022-12-29T16:52:22.638Z,83.64
2022-12-29T16:54:58.462Z,83.59
2022-12-29T16:57:37.292Z,83.42
2022-12-29T17:00:08.741Z,83.77
2022-12-29T17:02:45.548Z,83.46
2022-12-29T17:05:18.750Z,83.64
2022-12-29T17:07:46.777Z,83.82
2022-12-29T17:10:15.702Z,82.97
2022-12-29T17:12:46.763Z,83.20
2022-12-29T17:15:28.128Z,82.48
2022-12-29T17:17:56.741Z,83.16
2022-12-29T17:20:30.380Z,83.48
2022-12-29T17:22:59.297Z,82.56
2022-12-29T17:25:32.841Z,81.91
2022-12-29T17:28:08.694Z,82.58
2022-12-29T17:30:36.367Z,83.05
2022-12-29T17:33:08.781Z,82.61
2022-12-29T17:35:36.722Z,82.67
2022-12-29T17:38:23.975Z,82.50
2022-12-29T17:40:51.323Z,80.83
2022-12-29T17:43:22.041Z,80.55
2022-12-29T17:45:54.757Z,79.78
2022-12-29T17:48:23.098Z,80.52
2022-12-29T17:50:53.417Z,79.56
2022-12-29T17:53:26.505Z,79.45
2022-12-29T17:55:53.695Z,78.68
2022-12-29T17:58:25.841Z,77.49
2022-12-29T18:00:57.282Z,78.50
2022-12-29T18:03:40.689Z,78.20
2022-12-29T18:06:11.608Z,77.73
2022-12-29T18:08:40.649Z,77.30
2022-12-29T18:11:24.165Z,77.16
2022-12-29T18:13:52.528Z,77.59
2022-12-29T18:16:22.594Z,78.04
2022-12-29T18:18:49.968Z,77.98
2022-12-29T18:21:23.177Z,77.14
2022-12-29T18:23:50.879Z,76.72
2022-12-29T18:26:31.912Z,76.31
2022-12-29T18:28:59.449Z,76.45
2022-12-29T18:31:33.472Z,75.67
2022-12-29T18:34:12.763Z,75.88
2022-12-29T18:36:39.736Z,76.28
2022-12-29T18:39:06.788Z,75.73
2022-12-29T18:41:34.651Z,75.55
2022-12-29T18:44:01.687Z,74.92
2022-12-29T18:46:29.127Z,75.67
2022-12-29T18:48:56.241Z,74.83
2022-12-29T18:51:25.657Z,74.61
2022-12-29T18:53:54.240Z,74.68
2022-12-29T18:56:22.759Z,75.33
2022-12-29T18:58:51.526Z,75.42
2022-12-29T19:01:28.047Z,74.91
2022-12-29T19:03:55.321Z,75.38
2022-12-29T19:06:22.946Z,75.49
2022-12-29T19:08:50.009Z,75.46
2022-12-29T19:11:17.947Z,74.89
2022-12-29T19:13:45.194Z,75.33
2022-12-29T19:16:19.829Z,76.29
2022-12-29T19:18:58.227Z,76.35
2022-12-29T19:21:31.525Z,76.61
2022-12-29T19:23:58.460Z,75.53
2022-12-29T19:26:37.091Z,77.02
2022-12-29T19:29:06.696Z,77.10
2022-12-29T19:31:34.745Z,77.20
2022-12-29T19:34:03.065Z,76.79
2022-12-29T19:36:30.377Z,76.48
2022-12-29T19:38:57.643Z,76.86
2022-12-29T19:41:25.088Z,77.04
2022-12-29T19:43:52.066Z,76.89
2022-12-29T19:46:20.623Z,77.74
2022-12-29T19:48:59.683Z,77.68
2022-12-29T19:51:27.169Z,77.49
2022-12-29T19:53:55.349Z,77.33
2022-12-29T19:56:22.434Z,77.90
2022-12-29T19:58:50.551Z,78.04
2022-12-29T20:01:23.178Z,77.97
2022-12-29T20:03:51.307Z,78.85
2022-12-29T20:06:19.373Z,78.93
2022-12-29T20:08:46.291Z,78.71
2022-12-29T20:11:18.545Z,78.15
2022-12-29T20:13:46.105Z,77.72
2022-12-29T20:16:19.430Z,78.69
2022-12-29T20:18:47.587Z,78.44
2022-12-29T20:21:25.691Z,78.15
2022-12-29T20:23:54.292Z,77.67
2022-12-29T20:26:25.872Z,78.36
2022-12-29T20:28:54.405Z,78.00
2022-12-29T20:31:30.128Z,77.96
2022-12-29T20:33:57.215Z,78.39
2022-12-29T20:36:34.024Z,77.26
2022-12-29T20:39:07.293Z,78.08
2022-12-29T20:41:34.854Z,77.27
2022-12-29T20:44:02.332Z,77.22
2022-12-29T20:46:35.376Z,78.29
2022-12-29T20:49:08.599Z,77.26
2022-12-29T20:52:04.507Z,78.40
2022-12-29T20:54:24.080Z,77.83
2022-12-29T20:56:52.373Z,77.98
2022-12-29T20:59:28.155Z,79.01
2022-12-29T21:01:57.179Z,78.69
2022-12-29T21:04:24.729Z,79.05
2022-12-29T21:06:51.761Z,80.13
2022-12-29T21:09:20.270Z,78.84
2022-12-29T21:11:48.585Z,79.15
2022-12-29T21:14:15.663Z,79.83
2022-12-29T21:16:42.989Z,79.71
2022-12-29T21:19:10.030Z,80.05
2022-12-29T21:21:37.020Z,80.27
2022-12-29T21:24:06.987Z,80.97
2022-12-29T21:26:34.152Z,81.81
2022-12-29T21:29:03.362Z,80.80
2022-12-29T21:31:36.485Z,80.18
2022-12-29T21:34:05.562Z,81.16
2022-12-29T21:36:33.263Z,80.76
2022-12-29T21:39:03.204Z,81.01
2022-12-29T21:41:30.831Z,79.50
2022-12-29T21:44:17.817Z,81.77
2022-12-29T21:46:47.892Z,83.63
2022-12-29T21:49:14.898Z,84.65
2022-12-29T21:51:51.121Z,84.05
2022-12-29T21:54:41.091Z,83.77
2022-12-29T21:57:09.193Z,82.93
2022-12-29T21:59:54.870Z,83.62
2022-12-29T22:02:46.282Z,84.51
2022-12-29T22:05:34.451Z,83.55
2022-12-29T22:08:21.753Z,83.74
2022-12-29T22:11:07.923Z,83.71
2022-12-29T22:13:39.370Z,84.23
2022-12-29T22:16:11.259Z,83.41
2022-12-29T22:18:39.304Z,83.25
2022-12-29T22:21:11.025Z,81.53
2022-12-29T22:23:38.432Z,81.25
2022-12-29T22:26:09.051Z,81.46
2022-12-29T22:28:41.566Z,80.87
2022-12-29T22:31:27.878Z,81.05
2022-12-29T22:33:56.977Z,80.87
2022-12-29T22:36:24.956Z,79.52
2022-12-29T22:38:51.932Z,80.08
2022-12-29T22:41:19.511Z,79.87
2022-12-29T22:43:46.533Z,80.59
2022-12-29T22:46:14.074Z,80.16
2022-12-29T22:48:41.500Z,80.11
2022-12-29T22:51:08.815Z,79.99
2022-12-29T22:53:35.807Z,79.48
2022-12-29T22:56:09.935Z,79.67
2022-12-29T22:58:41.382Z,79.80
2022-12-29T23:01:09.081Z,80.22
2022-12-29T23:03:37.040Z,80.08
2022-12-29T23:06:07.237Z,80.28
2022-12-29T23:08:40.099Z,80.67
2022-12-29T23:11:10.109Z,80.10
2022-12-29T23:13:37.585Z,80.42
2022-12-29T23:16:05.120Z,80.15
2022-12-29T23:18:32.101Z,80.29
2022-12-29T23:20:59.099Z,80.28
2022-12-29T23:23:48.962Z,80.57
2022-12-29T23:26:18.697Z,81.19
2022-12-29T23:28:45.902Z,81.54
2022-12-29T23:31:13.803Z,81.74
2022-12-29T23:33:41.212Z,82.92
2022-12-29T23:36:08.551Z,82.99
2022-12-29T23:38:35.570Z,83.14
2022-12-29T23:41:02.631Z,82.64
2022-12-29T23:43:29.725Z,82.55
2022-12-29T23:45:56.755Z,81.53
2022-12-29T23:48:23.679Z,81.04
2022-12-29T23:50:50.940Z,81.23
2022-12-29T23:53:18.150Z,81.46
2022-12-29T23:55:51.864Z,81.73
